sensor_id;sensor_type;location;lat;lon;timestamp;P1;durP1;ratioP1;P2;durP2;ratioP2
438;SDS011;206;48.782;9.252;2022-07-29T00:01:20;5.60;;;5.30;;
438;SDS011;206;48.782;9.252;2022-07-29T00:03:46;5.10;;;4.80;;
438;SDS011;206;48.782;9.252;2022-07-29T00:06:13;4.60;;;4.30;;
438;SDS011;206;48.782;9.252;2022-07-29T00:08:39;5.80;;;5.50;;
438;SDS011;206;48.782;9.252;2022-07-29T00:11:05;4.80;;;4.50;;
438;SDS011;206;48.782;9.252;2022-07-29T00:13:31;5.30;;;4.90;;
438;SDS011;206;48.782;9.252;2022-07-29T00:15:56;6.10;;;5.17;;
438;SDS011;206;48.782;9.252;2022-07-29T00:18:22;6.40;;;4.63;;
438;SDS011;206;48.782;9.252;2022-07-29T00:20:47;5.50;;;5.20;;
438;SDS011;206;48.782;9.252;2022-07-29T00:23:13;5.00;;;4.70;;
438;SDS011;206;48.782;9.252;2022-07-29T00:25:39;5.50;;;5.20;;
438;SDS011;206;48.782;9.252;2022-07-29T00:28:04;10.27;;;5.87;;
438;SDS011;206;48.782;9.252;2022-07-29T00:30:30;5.53;;;4.80;;
438;SDS011;206;48.782;9.252;2022-07-29T00:32:56;5.30;;;5.00;;
438;SDS011;206;48.782;9.252;2022-07-29T00:35:22;6.53;;;5.70;;
438;SDS011;206;48.782;9.252;2022-07-29T00:38:06;6.30;;;5.33;;
438;SDS011;206;48.782;9.252;2022-07-29T00:40:31;5.10;;;4.80;;
438;SDS011;206;48.782;9.252;2022-07-29T00:42:57;7.03;;;6.00;;
438;SDS011;206;48.782;9.252;2022-07-29T00:45:23;6.43;;;5.83;;
438;SDS011;206;48.782;9.252;2022-07-29T00:47:48;7.03;;;6.70;;
438;SDS011;206;48.782;9.252;2022-07-29T00:50:14;9.57;;;7.17;;
438;SDS011;206;48.782;9.252;2022-07-29T00:52:40;12.17;;;6.93;;
438;SDS011;206;48.782;9.252;2022-07-29T00:55:08;8.97;;;8.47;;
438;SDS011;206;48.782;9.252;2022-07-29T00:57:36;7.90;;;6.73;;
438;SDS011;206;48.782;9.252;2022-07-29T01:00:06;6.93;;;6.50;;
438;SDS011;206;48.782;9.252;2022-07-29T01:02:33;8.47;;;6.90;;
438;SDS011;206;48.782;9.252;2022-07-29T01:04:59;7.73;;;7.20;;
438;SDS011;206;48.782;9.252;2022-07-29T01:07:26;7.97;;;7.57;;
438;SDS011;206;48.782;9.252;2022-07-29T01:09:53;11.43;;;9.80;;
438;SDS011;206;48.782;9.252;2022-07-29T01:12:21;7.20;;;6.80;;
438;SDS011;206;48.782;9.252;2022-07-29T01:14:50;9.40;;;8.90;;
438;SDS011;206;48.782;9.252;2022-07-29T01:17:26;8.60;;;8.10;;
438;SDS011;206;48.782;9.252;2022-07-29T01:20:03;7.37;;;6.97;;
438;SDS011;206;48.782;9.252;2022-07-29T01:28:01;7.57;;;7.17;;
438;SDS011;206;48.782;9.252;2022-07-29T01:30:41;7.70;;;7.30;;
438;SDS011;206;48.782;9.252;2022-07-29T01:33:10;13.50;;;6.50;;
438;SDS011;206;48.782;9.252;2022-07-29T01:35:58;7.37;;;6.97;;
438;SDS011;206;48.782;9.252;2022-07-29T01:38:32;12.00;;;6.63;;
438;SDS011;206;48.782;9.252;2022-07-29T01:41:05;10.83;;;6.50;;
438;SDS011;206;48.782;9.252;2022-07-29T01:43:36;7.40;;;5.87;;
438;SDS011;206;48.782;9.252;2022-07-29T01:46:08;7.80;;;7.10;;
438;SDS011;206;48.782;9.252;2022-07-29T01:48:48;6.87;;;6.47;;
438;SDS011;206;48.782;9.252;2022-07-29T01:51:19;6.30;;;5.33;;
438;SDS011;206;48.782;9.252;2022-07-29T01:54:02;6.27;;;5.93;;
438;SDS011;206;48.782;9.252;2022-07-29T01:56:33;6.30;;;5.97;;
438;SDS011;206;48.782;9.252;2022-07-29T01:59:01;7.70;;;5.50;;
438;SDS011;206;48.782;9.252;2022-07-29T02:01:29;6.80;;;5.63;;
438;SDS011;206;48.782;9.252;2022-07-29T02:03:57;9.90;;;6.00;;
438;SDS011;206;48.782;9.252;2022-07-29T02:06:27;6.20;;;5.90;;
438;SDS011;206;48.782;9.252;2022-07-29T02:08:54;6.97;;;6.47;;
438;SDS011;206;48.782;9.252;2022-07-29T02:11:22;10.33;;;7.37;;
438;SDS011;206;48.782;9.252;2022-07-29T02:13:48;7.40;;;7.00;;
438;SDS011;206;48.782;9.252;2022-07-29T02:16:18;15.10;;;7.33;;
438;SDS011;206;48.782;9.252;2022-07-29T02:18:46;6.73;;;6.33;;
438;SDS011;206;48.782;9.252;2022-07-29T02:21:15;9.90;;;7.53;;
438;SDS011;206;48.782;9.252;2022-07-29T02:23:46;6.33;;;5.97;;
438;SDS011;206;48.782;9.252;2022-07-29T02:26:13;6.90;;;5.67;;
438;SDS011;206;48.782;9.252;2022-07-29T02:28:40;5.80;;;5.50;;
438;SDS011;206;48.782;9.252;2022-07-29T02:31:06;7.20;;;6.50;;
438;SDS011;206;48.782;9.252;2022-07-29T02:33:33;7.07;;;6.23;;
438;SDS011;206;48.782;9.252;2022-07-29T02:36:00;7.27;;;5.13;;
438;SDS011;206;48.782;9.252;2022-07-29T02:38:27;6.63;;;6.23;;
438;SDS011;206;48.782;9.252;2022-07-29T02:41:13;5.10;;;4.80;;
438;SDS011;206;48.782;9.252;2022-07-29T02:43:44;5.60;;;5.30;;
438;SDS011;206;48.782;9.252;2022-07-29T02:46:13;4.80;;;4.50;;
438;SDS011;206;48.782;9.252;2022-07-29T02:48:45;6.23;;;5.10;;
438;SDS011;206;48.782;9.252;2022-07-29T02:51:28;5.90;;;5.60;;
438;SDS011;206;48.782;9.252;2022-07-29T02:54:01;7.17;;;5.27;;
438;SDS011;206;48.782;9.252;2022-07-29T02:56:31;5.50;;;5.20;;
438;SDS011;206;48.782;9.252;2022-07-29T02:59:01;6.23;;;5.00;;
438;SDS011;206;48.782;9.252;2022-07-29T03:01:31;5.90;;;5.57;;
438;SDS011;206;48.782;9.252;2022-07-29T03:03:59;6.20;;;5.60;;
438;SDS011;206;48.782;9.252;2022-07-29T03:06:27;5.87;;;5.57;;
438;SDS011;206;48.782;9.252;2022-07-29T03:08:54;10.20;;;5.10;;
438;SDS011;206;48.782;9.252;2022-07-29T03:11:22;6.80;;;5.57;;
438;SDS011;206;48.782;9.252;2022-07-29T03:13:48;4.43;;;4.10;;
438;SDS011;206;48.782;9.252;2022-07-29T03:16:14;6.30;;;4.80;;
438;SDS011;206;48.782;9.252;2022-07-29T03:18:43;5.63;;;4.30;;
438;SDS011;206;48.782;9.252;2022-07-29T03:21:09;5.20;;;4.90;;
438;SDS011;206;48.782;9.252;2022-07-29T03:23:34;6.07;;;4.37;;
438;SDS011;206;48.782;9.252;2022-07-29T03:26:00;6.40;;;5.07;;
438;SDS011;206;48.782;9.252;2022-07-29T03:28:25;7.03;;;5.67;;
438;SDS011;206;48.782;9.252;2022-07-29T03:30:52;6.00;;;5.70;;
438;SDS011;206;48.782;9.252;2022-07-29T03:33:18;5.53;;;5.10;;
438;SDS011;206;48.782;9.252;2022-07-29T03:35:44;5.33;;;5.00;;
438;SDS011;206;48.782;9.252;2022-07-29T03:38:10;5.50;;;5.20;;
438;SDS011;206;48.782;9.252;2022-07-29T03:40:38;4.70;;;4.40;;
438;SDS011;206;48.782;9.252;2022-07-29T03:43:09;5.23;;;4.93;;
438;SDS011;206;48.782;9.252;2022-07-29T03:45:37;9.07;;;5.53;;
438;SDS011;206;48.782;9.252;2022-07-29T03:48:07;5.60;;;5.30;;
438;SDS011;206;48.782;9.252;2022-07-29T03:50:35;5.30;;;5.03;;
438;SDS011;206;48.782;9.252;2022-07-29T03:53:01;5.10;;;4.80;;
438;SDS011;206;48.782;9.252;2022-07-29T03:55:28;5.97;;;5.10;;
438;SDS011;206;48.782;9.252;2022-07-29T03:57:56;7.90;;;5.50;;
438;SDS011;206;48.782;9.252;2022-07-29T04:00:23;5.37;;;5.07;;
438;SDS011;206;48.782;9.252;2022-07-29T04:02:50;7.20;;;5.43;;
438;SDS011;206;48.782;9.252;2022-07-29T04:05:16;5.60;;;4.97;;
438;SDS011;206;48.782;9.252;2022-07-29T04:07:43;5.57;;;5.27;;
438;SDS011;206;48.782;9.252;2022-07-29T04:10:12;5.50;;;5.20;;
438;SDS011;206;48.782;9.252;2022-07-29T04:12:40;10.00;;;5.90;;
438;SDS011;206;48.782;9.252;2022-07-29T04:15:06;5.90;;;5.60;;
438;SDS011;206;48.782;9.252;2022-07-29T04:17:32;5.70;;;5.40;;
438;SDS011;206;48.782;9.252;2022-07-29T04:19:58;5.70;;;5.40;;
438;SDS011;206;48.782;9.252;2022-07-29T04:22:24;5.10;;;4.80;;
438;SDS011;206;48.782;9.252;2022-07-29T04:24:50;5.53;;;5.23;;
438;SDS011;206;48.782;9.252;2022-07-29T04:27:15;7.17;;;5.80;;
438;SDS011;206;48.782;9.252;2022-07-29T04:29:41;6.07;;;5.77;;
438;SDS011;206;48.782;9.252;2022-07-29T04:32:07;11.13;;;6.63;;
438;SDS011;206;48.782;9.252;2022-07-29T04:34:32;10.03;;;5.80;;
438;SDS011;206;48.782;9.252;2022-07-29T04:36:58;10.93;;;5.30;;
438;SDS011;206;48.782;9.252;2022-07-29T04:39:24;5.67;;;4.83;;
438;SDS011;206;48.782;9.252;2022-07-29T04:41:50;8.07;;;5.80;;
438;SDS011;206;48.782;9.252;2022-07-29T04:44:15;6.90;;;5.73;;
438;SDS011;206;48.782;9.252;2022-07-29T04:46:41;8.10;;;5.40;;
438;SDS011;206;48.782;9.252;2022-07-29T04:49:07;11.23;;;5.57;;
438;SDS011;206;48.782;9.252;2022-07-29T04:51:32;18.67;;;7.17;;
438;SDS011;206;48.782;9.252;2022-07-29T04:53:59;10.63;;;5.70;;
438;SDS011;206;48.782;9.252;2022-07-29T04:56:25;11.93;;;6.30;;
438;SDS011;206;48.782;9.252;2022-07-29T04:58:50;13.80;;;6.23;;
438;SDS011;206;48.782;9.252;2022-07-29T05:01:16;9.23;;;4.73;;
438;SDS011;206;48.782;9.252;2022-07-29T05:03:42;6.87;;;5.27;;
438;SDS011;206;48.782;9.252;2022-07-29T05:06:08;10.17;;;6.10;;
438;SDS011;206;48.782;9.252;2022-07-29T05:08:33;12.10;;;6.73;;
438;SDS011;206;48.782;9.252;2022-07-29T05:10:59;10.60;;;7.60;;
438;SDS011;206;48.782;9.252;2022-07-29T05:13:24;9.93;;;7.07;;
438;SDS011;206;48.782;9.252;2022-07-29T05:15:50;10.93;;;7.50;;
438;SDS011;206;48.782;9.252;2022-07-29T05:18:15;10.20;;;7.90;;
438;SDS011;206;48.782;9.252;2022-07-29T05:20:41;19.57;;;10.37;;
438;SDS011;206;48.782;9.252;2022-07-29T05:23:07;18.50;;;10.53;;
438;SDS011;206;48.782;9.252;2022-07-29T05:25:33;20.90;;;9.40;;
438;SDS011;206;48.782;9.252;2022-07-29T05:27:58;10.53;;;8.10;;
438;SDS011;206;48.782;9.252;2022-07-29T05:30:24;7.33;;;6.90;;
438;SDS011;206;48.782;9.252;2022-07-29T05:32:50;7.33;;;6.00;;
438;SDS011;206;48.782;9.252;2022-07-29T05:35:15;5.93;;;5.43;;
438;SDS011;206;48.782;9.252;2022-07-29T05:37:41;9.00;;;5.57;;
438;SDS011;206;48.782;9.252;2022-07-29T05:40:07;10.00;;;5.87;;
438;SDS011;206;48.782;9.252;2022-07-29T05:42:33;6.63;;;5.13;;
438;SDS011;206;48.782;9.252;2022-07-29T05:45:00;6.90;;;5.07;;
438;SDS011;206;48.782;9.252;2022-07-29T05:47:26;8.43;;;5.30;;
438;SDS011;206;48.782;9.252;2022-07-29T05:49:52;8.67;;;6.30;;
438;SDS011;206;48.782;9.252;2022-07-29T05:52:18;12.50;;;5.00;;
438;SDS011;206;48.782;9.252;2022-07-29T05:54:43;8.17;;;4.90;;
438;SDS011;206;48.782;9.252;2022-07-29T05:57:19;5.17;;;4.87;;
438;SDS011;206;48.782;9.252;2022-07-29T05:59:46;4.50;;;4.20;;
438;SDS011;206;48.782;9.252;2022-07-29T06:02:12;5.40;;;4.13;;
438;SDS011;206;48.782;9.252;2022-07-29T06:04:38;4.40;;;4.10;;
438;SDS011;206;48.782;9.252;2022-07-29T06:07:04;4.50;;;3.70;;
438;SDS011;206;48.782;9.252;2022-07-29T06:09:31;4.07;;;3.87;;
438;SDS011;206;48.782;9.252;2022-07-29T06:11:57;4.90;;;4.63;;
438;SDS011;206;48.782;9.252;2022-07-29T06:14:23;4.73;;;3.70;;
438;SDS011;206;48.782;9.252;2022-07-29T06:16:49;4.57;;;4.27;;
438;SDS011;206;48.782;9.252;2022-07-29T06:19:14;6.20;;;4.50;;
438;SDS011;206;48.782;9.252;2022-07-29T06:21:43;4.60;;;4.30;;
438;SDS011;206;48.782;9.252;2022-07-29T06:24:10;3.57;;;3.37;;
438;SDS011;206;48.782;9.252;2022-07-29T06:26:37;4.13;;;3.90;;
438;SDS011;206;48.782;9.252;2022-07-29T06:29:03;5.73;;;3.87;;
438;SDS011;206;48.782;9.252;2022-07-29T06:31:29;8.93;;;4.80;;
438;SDS011;206;48.782;9.252;2022-07-29T06:33:54;3.53;;;3.33;;
438;SDS011;206;48.782;9.252;2022-07-29T06:36:20;4.43;;;4.13;;
438;SDS011;206;48.782;9.252;2022-07-29T06:38:46;6.00;;;3.37;;
438;SDS011;206;48.782;9.252;2022-07-29T06:41:11;4.10;;;3.83;;
438;SDS011;206;48.782;9.252;2022-07-29T06:43:41;9.97;;;4.50;;
438;SDS011;206;48.782;9.252;2022-07-29T06:46:09;4.40;;;4.10;;
438;SDS011;206;48.782;9.252;2022-07-29T06:48:37;5.27;;;4.30;;
438;SDS011;206;48.782;9.252;2022-07-29T06:51:03;6.93;;;4.23;;
438;SDS011;206;48.782;9.252;2022-07-29T06:53:30;3.70;;;3.50;;
438;SDS011;206;48.782;9.252;2022-07-29T06:55:57;3.77;;;3.57;;
438;SDS011;206;48.782;9.252;2022-07-29T06:58:24;6.73;;;3.73;;
438;SDS011;206;48.782;9.252;2022-07-29T07:00:50;3.60;;;3.50;;
438;SDS011;206;48.782;9.252;2022-07-29T07:03:16;6.77;;;3.23;;
438;SDS011;206;48.782;9.252;2022-07-29T07:05:43;3.37;;;3.17;;
438;SDS011;206;48.782;9.252;2022-07-29T07:08:09;3.40;;;3.20;;
438;SDS011;206;48.782;9.252;2022-07-29T07:10:35;3.20;;;3.00;;
438;SDS011;206;48.782;9.252;2022-07-29T07:13:02;3.40;;;3.20;;
438;SDS011;206;48.782;9.252;2022-07-29T07:15:31;4.37;;;3.57;;
438;SDS011;206;48.782;9.252;2022-07-29T07:17:57;12.00;;;4.60;;
438;SDS011;206;48.782;9.252;2022-07-29T07:20:23;3.70;;;3.50;;
438;SDS011;206;48.782;9.252;2022-07-29T07:22:49;4.90;;;3.60;;
438;SDS011;206;48.782;9.252;2022-07-29T07:25:15;3.37;;;3.17;;
438;SDS011;206;48.782;9.252;2022-07-29T07:27:42;3.90;;;3.70;;
438;SDS011;206;48.782;9.252;2022-07-29T07:30:08;4.10;;;3.23;;
438;SDS011;206;48.782;9.252;2022-07-29T07:32:35;3.87;;;3.13;;
438;SDS011;206;48.782;9.252;2022-07-29T07:35:02;7.83;;;4.40;;
438;SDS011;206;48.782;9.252;2022-07-29T07:37:29;6.73;;;4.13;;
438;SDS011;206;48.782;9.252;2022-07-29T07:39:55;3.83;;;3.37;;
438;SDS011;206;48.782;9.252;2022-07-29T07:42:21;7.93;;;3.60;;
438;SDS011;206;48.782;9.252;2022-07-29T07:44:47;3.23;;;3.03;;
438;SDS011;206;48.782;9.252;2022-07-29T07:47:14;3.17;;;3.00;;
438;SDS011;206;48.782;9.252;2022-07-29T07:49:44;6.17;;;3.70;;
438;SDS011;206;48.782;9.252;2022-07-29T07:52:14;4.20;;;3.50;;
438;SDS011;206;48.782;9.252;2022-07-29T07:54:41;3.97;;;3.77;;
438;SDS011;206;48.782;9.252;2022-07-29T07:57:08;5.63;;;3.37;;
438;SDS011;206;48.782;9.252;2022-07-29T07:59:33;5.30;;;3.60;;
438;SDS011;206;48.782;9.252;2022-07-29T08:01:59;5.47;;;3.60;;
438;SDS011;206;48.782;9.252;2022-07-29T08:04:26;5.10;;;2.90;;
438;SDS011;206;48.782;9.252;2022-07-29T08:06:51;3.70;;;3.50;;
438;SDS011;206;48.782;9.252;2022-07-29T08:09:19;4.80;;;3.80;;
438;SDS011;206;48.782;9.252;2022-07-29T08:11:48;11.20;;;3.50;;
438;SDS011;206;48.782;9.252;2022-07-29T08:14:19;3.60;;;3.10;;
438;SDS011;206;48.782;9.252;2022-07-29T08:16:45;4.13;;;3.57;;
438;SDS011;206;48.782;9.252;2022-07-29T08:19:11;3.60;;;3.30;;
438;SDS011;206;48.782;9.252;2022-07-29T08:21:37;3.40;;;3.20;;
438;SDS011;206;48.782;9.252;2022-07-29T08:24:03;3.30;;;3.10;;
438;SDS011;206;48.782;9.252;2022-07-29T08:26:47;3.90;;;3.70;;
438;SDS011;206;48.782;9.252;2022-07-29T08:29:13;5.07;;;3.47;;
438;SDS011;206;48.782;9.252;2022-07-29T08:31:39;4.13;;;3.30;;
438;SDS011;206;48.782;9.252;2022-07-29T08:34:05;3.67;;;3.13;;
438;SDS011;206;48.782;9.252;2022-07-29T08:36:31;5.13;;;3.73;;
438;SDS011;206;48.782;9.252;2022-07-29T08:38:58;3.57;;;3.37;;
438;SDS011;206;48.782;9.252;2022-07-29T08:41:25;3.13;;;2.93;;
438;SDS011;206;48.782;9.252;2022-07-29T08:43:51;5.40;;;4.07;;
438;SDS011;206;48.782;9.252;2022-07-29T08:46:18;5.00;;;4.00;;
438;SDS011;206;48.782;9.252;2022-07-29T08:48:53;5.60;;;4.23;;
438;SDS011;206;48.782;9.252;2022-07-29T08:51:20;4.80;;;3.70;;
438;SDS011;206;48.782;9.252;2022-07-29T08:53:48;8.30;;;4.50;;
438;SDS011;206;48.782;9.252;2022-07-29T08:56:15;3.67;;;3.50;;
438;SDS011;206;48.782;9.252;2022-07-29T08:58:43;3.93;;;3.73;;
438;SDS011;206;48.782;9.252;2022-07-29T09:01:10;4.30;;;4.03;;
438;SDS011;206;48.782;9.252;2022-07-29T09:03:40;4.27;;;4.00;;
438;SDS011;206;48.782;9.252;2022-07-29T09:06:06;5.83;;;3.93;;
438;SDS011;206;48.782;9.252;2022-07-29T09:08:33;12.60;;;5.00;;
438;SDS011;206;48.782;9.252;2022-07-29T09:11:00;4.07;;;3.87;;
438;SDS011;206;48.782;9.252;2022-07-29T09:13:28;6.03;;;3.93;;
438;SDS011;206;48.782;9.252;2022-07-29T09:15:54;5.27;;;3.77;;
438;SDS011;206;48.782;9.252;2022-07-29T09:21:05;3.97;;;3.77;;
438;SDS011;206;48.782;9.252;2022-07-29T09:24:01;4.20;;;3.97;;
438;SDS011;206;48.782;9.252;2022-07-29T09:26:35;5.10;;;4.23;;
438;SDS011;206;48.782;9.252;2022-07-29T09:29:09;4.03;;;3.63;;
438;SDS011;206;48.782;9.252;2022-07-29T09:31:43;5.43;;;3.30;;
438;SDS011;206;48.782;9.252;2022-07-29T09:34:10;6.40;;;4.13;;
438;SDS011;206;48.782;9.252;2022-07-29T09:36:43;7.03;;;4.47;;
438;SDS011;206;48.782;9.252;2022-07-29T09:39:11;6.80;;;4.37;;
438;SDS011;206;48.782;9.252;2022-07-29T09:41:44;4.37;;;3.70;;
438;SDS011;206;48.782;9.252;2022-07-29T09:44:10;7.00;;;3.73;;
438;SDS011;206;48.782;9.252;2022-07-29T09:46:35;6.10;;;4.73;;
438;SDS011;206;48.782;9.252;2022-07-29T09:49:11;4.80;;;4.50;;
438;SDS011;206;48.782;9.252;2022-07-29T09:51:38;12.60;;;4.80;;
438;SDS011;206;48.782;9.252;2022-07-29T09:56:50;4.57;;;4.17;;
438;SDS011;206;48.782;9.252;2022-07-29T09:59:17;5.03;;;4.73;;
438;SDS011;206;48.782;9.252;2022-07-29T10:01:43;7.23;;;4.67;;
438;SDS011;206;48.782;9.252;2022-07-29T10:04:08;6.00;;;4.40;;
438;SDS011;206;48.782;9.252;2022-07-29T10:06:34;6.90;;;4.47;;
438;SDS011;206;48.782;9.252;2022-07-29T10:09:19;4.50;;;4.20;;
438;SDS011;206;48.782;9.252;2022-07-29T10:11:56;4.70;;;4.40;;
438;SDS011;206;48.782;9.252;2022-07-29T10:14:28;4.43;;;4.00;;
438;SDS011;206;48.782;9.252;2022-07-29T10:16:56;4.30;;;4.00;;
438;SDS011;206;48.782;9.252;2022-07-29T10:19:22;4.37;;;4.07;;
438;SDS011;206;48.782;9.252;2022-07-29T10:21:47;3.90;;;3.70;;
438;SDS011;206;48.782;9.252;2022-07-29T10:24:13;7.50;;;5.03;;
438;SDS011;206;48.782;9.252;2022-07-29T10:26:39;8.07;;;5.23;;
438;SDS011;206;48.782;9.252;2022-07-29T10:29:05;4.90;;;4.60;;
438;SDS011;206;48.782;9.252;2022-07-29T10:34:27;6.60;;;4.40;;
438;SDS011;206;48.782;9.252;2022-07-29T10:42:49;4.27;;;3.70;;
438;SDS011;206;48.782;9.252;2022-07-29T10:45:17;7.93;;;4.93;;
438;SDS011;206;48.782;9.252;2022-07-29T10:47:42;5.10;;;4.80;;
438;SDS011;206;48.782;9.252;2022-07-29T10:50:09;5.37;;;5.07;;
438;SDS011;206;48.782;9.252;2022-07-29T10:55:35;7.73;;;5.53;;
438;SDS011;206;48.782;9.252;2022-07-29T11:00:38;8.30;;;6.10;;
438;SDS011;206;48.782;9.252;2022-07-29T11:03:04;10.13;;;5.50;;
438;SDS011;206;48.782;9.252;2022-07-29T11:05:29;14.33;;;7.90;;
438;SDS011;206;48.782;9.252;2022-07-29T11:08:19;11.07;;;7.57;;
438;SDS011;206;48.782;9.252;2022-07-29T11:10:48;11.97;;;7.50;;
438;SDS011;206;48.782;9.252;2022-07-29T11:14:00;19.80;;;10.80;;
438;SDS011;206;48.782;9.252;2022-07-29T11:16:15;17.80;;;10.57;;
438;SDS011;206;48.782;9.252;2022-07-29T11:21:35;8.77;;;8.13;;
438;SDS011;206;48.782;9.252;2022-07-29T11:24:11;13.10;;;8.73;;
438;SDS011;206;48.782;9.252;2022-07-29T11:26:42;9.17;;;7.03;;
438;SDS011;206;48.782;9.252;2022-07-29T11:31:52;12.23;;;8.10;;
438;SDS011;206;48.782;9.252;2022-07-29T11:34:29;8.90;;;6.10;;
438;SDS011;206;48.782;9.252;2022-07-29T11:39:36;5.63;;;4.00;;
438;SDS011;206;48.782;9.252;2022-07-29T11:47:41;9.60;;;3.53;;
438;SDS011;206;48.782;9.252;2022-07-29T11:50:13;4.03;;;2.43;;
438;SDS011;206;48.782;9.252;2022-07-29T11:52:45;5.07;;;2.53;;
438;SDS011;206;48.782;9.252;2022-07-29T11:55:16;5.03;;;2.50;;
438;SDS011;206;48.782;9.252;2022-07-29T11:57:50;3.40;;;2.50;;
438;SDS011;206;48.782;9.252;2022-07-29T12:00:22;4.00;;;2.83;;
438;SDS011;206;48.782;9.252;2022-07-29T12:02:48;3.97;;;3.30;;
438;SDS011;206;48.782;9.252;2022-07-29T12:05:13;5.70;;;3.80;;
438;SDS011;206;48.782;9.252;2022-07-29T12:07:40;5.27;;;2.73;;
438;SDS011;206;48.782;9.252;2022-07-29T12:10:07;3.17;;;2.77;;
438;SDS011;206;48.782;9.252;2022-07-29T12:12:34;4.80;;;4.10;;
438;SDS011;206;48.782;9.252;2022-07-29T12:15:16;5.33;;;3.70;;
438;SDS011;206;48.782;9.252;2022-07-29T12:17:44;7.73;;;3.80;;
438;SDS011;206;48.782;9.252;2022-07-29T12:20:10;7.40;;;4.60;;
438;SDS011;206;48.782;9.252;2022-07-29T12:22:39;4.23;;;3.97;;
438;SDS011;206;48.782;9.252;2022-07-29T12:25:08;7.40;;;5.53;;
438;SDS011;206;48.782;9.252;2022-07-29T12:27:36;8.33;;;6.43;;
438;SDS011;206;48.782;9.252;2022-07-29T12:30:07;8.30;;;7.90;;
438;SDS011;206;48.782;9.252;2022-07-29T12:32:35;10.43;;;9.90;;
438;SDS011;206;48.782;9.252;2022-07-29T12:35:03;7.97;;;5.00;;
438;SDS011;206;48.782;9.252;2022-07-29T12:37:34;5.53;;;4.37;;
438;SDS011;206;48.782;9.252;2022-07-29T12:40:03;9.73;;;3.80;;
438;SDS011;206;48.782;9.252;2022-07-29T12:42:30;4.33;;;4.03;;
438;SDS011;206;48.782;9.252;2022-07-29T12:44:55;5.50;;;3.80;;
438;SDS011;206;48.782;9.252;2022-07-29T12:47:21;5.10;;;3.80;;
438;SDS011;206;48.782;9.252;2022-07-29T12:49:50;5.53;;;5.20;;
438;SDS011;206;48.782;9.252;2022-07-29T12:52:33;4.57;;;4.27;;
438;SDS011;206;48.782;9.252;2022-07-29T12:54:59;9.43;;;4.67;;
438;SDS011;206;48.782;9.252;2022-07-29T12:57:26;8.87;;;6.00;;
438;SDS011;206;48.782;9.252;2022-07-29T12:59:59;7.97;;;5.70;;
438;SDS011;206;48.782;9.252;2022-07-29T13:02:30;6.60;;;4.17;;
438;SDS011;206;48.782;9.252;2022-07-29T13:04:56;6.63;;;4.63;;
438;SDS011;206;48.782;9.252;2022-07-29T13:07:24;5.23;;;4.17;;
438;SDS011;206;48.782;9.252;2022-07-29T13:09:52;5.90;;;3.87;;
438;SDS011;206;48.782;9.252;2022-07-29T13:12:17;4.53;;;4.13;;
438;SDS011;206;48.782;9.252;2022-07-29T13:14:44;8.90;;;5.23;;
438;SDS011;206;48.782;9.252;2022-07-29T13:19:45;6.10;;;5.80;;
438;SDS011;206;48.782;9.252;2022-07-29T13:22:12;6.00;;;5.70;;
438;SDS011;206;48.782;9.252;2022-07-29T13:27:13;7.67;;;7.27;;
438;SDS011;206;48.782;9.252;2022-07-29T13:29:39;6.37;;;6.00;;
438;SDS011;206;48.782;9.252;2022-07-29T13:32:05;7.30;;;4.90;;
438;SDS011;206;48.782;9.252;2022-07-29T13:34:31;8.63;;;5.70;;
438;SDS011;206;48.782;9.252;2022-07-29T13:36:56;7.53;;;5.70;;
438;SDS011;206;48.782;9.252;2022-07-29T13:39:22;10.00;;;6.40;;
438;SDS011;206;48.782;9.252;2022-07-29T13:41:48;5.07;;;4.77;;
438;SDS011;206;48.782;9.252;2022-07-29T13:44:14;6.30;;;5.03;;
438;SDS011;206;48.782;9.252;2022-07-29T13:46:39;12.90;;;6.43;;
438;SDS011;206;48.782;9.252;2022-07-29T13:49:05;7.23;;;5.80;;
438;SDS011;206;48.782;9.252;2022-07-29T13:51:31;10.07;;;5.20;;
438;SDS011;206;48.782;9.252;2022-07-29T13:53:56;7.37;;;5.40;;
438;SDS011;206;48.782;9.252;2022-07-29T13:56:22;6.90;;;5.10;;
438;SDS011;206;48.782;9.252;2022-07-29T13:58:48;5.63;;;4.83;;
438;SDS011;206;48.782;9.252;2022-07-29T14:01:13;4.50;;;4.20;;
438;SDS011;206;48.782;9.252;2022-07-29T14:03:39;5.27;;;4.97;;
438;SDS011;206;48.782;9.252;2022-07-29T14:06:07;5.30;;;5.00;;
438;SDS011;206;48.782;9.252;2022-07-29T14:08:34;6.93;;;5.00;;
438;SDS011;206;48.782;9.252;2022-07-29T14:10:59;4.83;;;4.53;;
438;SDS011;206;48.782;9.252;2022-07-29T14:13:25;9.37;;;6.23;;
438;SDS011;206;48.782;9.252;2022-07-29T14:15:51;8.10;;;7.10;;
438;SDS011;206;48.782;9.252;2022-07-29T14:18:17;10.13;;;8.60;;
438;SDS011;206;48.782;9.252;2022-07-29T14:20:42;7.50;;;7.10;;
438;SDS011;206;48.782;9.252;2022-07-29T14:23:08;7.93;;;7.53;;
438;SDS011;206;48.782;9.252;2022-07-29T14:25:33;12.67;;;11.90;;
438;SDS011;206;48.782;9.252;2022-07-29T14:27:59;11.00;;;10.40;;
438;SDS011;206;48.782;9.252;2022-07-29T14:30:24;9.53;;;8.13;;
438;SDS011;206;48.782;9.252;2022-07-29T14:32:50;9.43;;;8.93;;
438;SDS011;206;48.782;9.252;2022-07-29T14:35:16;9.40;;;8.20;;
438;SDS011;206;48.782;9.252;2022-07-29T14:37:41;8.30;;;6.80;;
438;SDS011;206;48.782;9.252;2022-07-29T14:40:08;11.77;;;7.33;;
438;SDS011;206;48.782;9.252;2022-07-29T14:42:34;9.50;;;7.40;;
438;SDS011;206;48.782;9.252;2022-07-29T14:45:01;12.50;;;7.80;;
438;SDS011;206;48.782;9.252;2022-07-29T14:47:26;11.13;;;8.50;;
438;SDS011;206;48.782;9.252;2022-07-29T14:49:52;8.57;;;7.17;;
438;SDS011;206;48.782;9.252;2022-07-29T14:52:18;9.83;;;7.37;;
438;SDS011;206;48.782;9.252;2022-07-29T14:54:43;9.53;;;6.97;;
438;SDS011;206;48.782;9.252;2022-07-29T14:57:09;8.17;;;7.77;;
438;SDS011;206;48.782;9.252;2022-07-29T14:59:35;10.67;;;6.57;;
438;SDS011;206;48.782;9.252;2022-07-29T15:02:00;6.97;;;6.57;;
438;SDS011;206;48.782;9.252;2022-07-29T15:04:26;7.20;;;6.80;;
438;SDS011;206;48.782;9.252;2022-07-29T15:06:51;7.00;;;6.60;;
438;SDS011;206;48.782;9.252;2022-07-29T15:09:17;6.90;;;6.50;;
438;SDS011;206;48.782;9.252;2022-07-29T15:11:43;8.07;;;6.27;;
438;SDS011;206;48.782;9.252;2022-07-29T15:14:09;8.43;;;6.10;;
438;SDS011;206;48.782;9.252;2022-07-29T15:16:38;6.57;;;5.87;;
438;SDS011;206;48.782;9.252;2022-07-29T15:19:05;7.00;;;6.30;;
438;SDS011;206;48.782;9.252;2022-07-29T15:21:31;7.50;;;7.10;;
438;SDS011;206;48.782;9.252;2022-07-29T15:23:56;8.47;;;6.73;;
438;SDS011;206;48.782;9.252;2022-07-29T15:26:22;6.13;;;5.83;;
438;SDS011;206;48.782;9.252;2022-07-29T15:28:48;5.90;;;5.60;;
438;SDS011;206;48.782;9.252;2022-07-29T15:31:14;6.60;;;6.20;;
438;SDS011;206;48.782;9.252;2022-07-29T15:33:39;8.13;;;5.87;;
438;SDS011;206;48.782;9.252;2022-07-29T15:36:05;7.80;;;6.87;;
438;SDS011;206;48.782;9.252;2022-07-29T15:38:31;6.47;;;6.07;;
438;SDS011;206;48.782;9.252;2022-07-29T15:40:57;6.57;;;6.17;;
438;SDS011;206;48.782;9.252;2022-07-29T15:43:23;7.13;;;6.03;;
438;SDS011;206;48.782;9.252;2022-07-29T15:45:49;6.00;;;5.70;;
438;SDS011;206;48.782;9.252;2022-07-29T15:48:35;10.73;;;5.67;;
438;SDS011;206;48.782;9.252;2022-07-29T15:51:03;5.50;;;5.20;;
438;SDS011;206;48.782;9.252;2022-07-29T15:53:29;7.40;;;6.40;;
438;SDS011;206;48.782;9.252;2022-07-29T15:55:54;7.63;;;6.60;;
438;SDS011;206;48.782;9.252;2022-07-29T15:58:20;6.33;;;5.70;;
438;SDS011;206;48.782;9.252;2022-07-29T16:00:46;5.30;;;5.00;;
438;SDS011;206;48.782;9.252;2022-07-29T16:03:12;7.77;;;7.37;;
438;SDS011;206;48.782;9.252;2022-07-29T16:05:38;5.87;;;5.57;;
438;SDS011;206;48.782;9.252;2022-07-29T16:08:04;6.17;;;5.87;;
438;SDS011;206;48.782;9.252;2022-07-29T16:10:33;6.10;;;5.80;;
438;SDS011;206;48.782;9.252;2022-07-29T16:13:05;8.00;;;6.10;;
438;SDS011;206;48.782;9.252;2022-07-29T16:15:30;6.63;;;6.23;;
438;SDS011;206;48.782;9.252;2022-07-29T16:17:56;6.73;;;6.33;;
438;SDS011;206;48.782;9.252;2022-07-29T16:20:22;6.50;;;6.10;;
438;SDS011;206;48.782;9.252;2022-07-29T16:22:48;6.80;;;6.43;;
438;SDS011;206;48.782;9.252;2022-07-29T16:25:13;7.57;;;5.90;;
438;SDS011;206;48.782;9.252;2022-07-29T16:27:39;6.80;;;6.40;;
438;SDS011;206;48.782;9.252;2022-07-29T16:30:05;9.50;;;7.40;;